Time;durP1;ratioP1;P1;durP2;ratioP2;P2;SDS_P1;SDS_P2;PMS_P1;PMS_P2;Temp;Humidity;BMP_temperature;BMP_pressure;BME280_temperature;BME280_humidity;BME280_pressure;Samples;Min_cycle;Max_cycle;Signal;HPM_P1;HPM_P2
2021/12/02 00:00:40;;;;;;;;;;;6.40;99.90;;;;;;5058940;28;19909;-83
2021/12/02 00:03:08;;;;;;;;;;;6.40;99.90;;;;;;5061235;28;19913;-84
2021/12/02 00:05:33;;;;;;;;;;;6.50;99.90;;;;;;5058107;28;19908;-84
2021/12/02 00:07:59;;;;;;;;;;;6.50;99.90;;;;;;5066418;28;20285;-83
2021/12/02 00:10:29;;;;;;;;;;;6.50;99.90;;;;;;5077316;28;19912;-84
2021/12/02 00:12:56;;;;;;;;;;;6.50;99.90;;;;;;5073792;28;19999;-82
2021/12/02 00:15:25;;;;;;;;;;;6.50;99.90;;;;;;5078877;28;19935;-82
2021/12/02 00:17:56;;;;;;;;;;;6.50;99.90;;;;;;5074281;28;19912;-82
2021/12/02 00:23:27;;;;;;;;;;;6.40;99.90;;;;;;5078577;28;20292;-83
2021/12/02 00:25:53;;;;;;;;;;;6.50;99.90;;;;;;5076707;28;19959;-82
2021/12/02 00:28:18;;;;;;;;;;;6.50;99.90;;;;;;5078765;28;20381;-82
2021/12/02 00:30:44;;;;;;;;;;;6.50;99.90;;;;;;5079113;28;20364;-82
2021/12/02 00:33:11;;;;;;;;;;;6.40;99.90;;;;;;5078718;28;20269;-81
2021/12/02 00:35:36;;;;;;;;;;;6.40;99.90;;;;;;5078985;28;19915;-82
2021/12/02 00:38:02;;;;;;;;;;;6.40;99.90;;;;;;5078673;28;19908;-81
2021/12/02 00:40:28;;;;;;;;;;;6.40;99.90;;;;;;5077080;28;19915;-81
2021/12/02 00:42:53;;;;;;;;;;;6.30;99.90;;;;;;5078679;28;19916;-82
2021/12/02 00:45:19;;;;;;;;;;;6.20;99.90;;;;;;5078788;28;20542;-83
2021/12/02 00:47:45;;;;;;;;;;;6.10;99.90;;;;;;5077139;28;19908;-83
2021/12/02 00:50:11;;;;;;;;;;;5.90;99.90;;;;;;5077181;28;19916;-82
2021/12/02 00:52:37;;;;;;;;;;;5.80;99.90;;;;;;5078590;28;19909;-82
2021/12/02 00:55:03;;;;;;;;;;;5.70;99.90;;;;;;5077721;28;19954;-82
2021/12/02 00:57:29;;;;;;;;;;;5.70;99.90;;;;;;5078362;28;19908;-82
2021/12/02 00:59:57;;;;;;;;;;;5.60;99.90;;;;;;5078631;28;19909;-83
2021/12/02 01:02:23;;;;;;;;;;;5.70;99.90;;;;;;5078135;28;19912;-82
2021/12/02 01:04:49;;;;;;;;;;;5.60;99.90;;;;;;5078559;28;19999;-83
2021/12/02 01:07:15;;;;;;;;;;;5.70;99.90;;;;;;5078252;28;19958;-83
2021/12/02 01:09:41;;;;;;;;;;;5.70;99.90;;;;;;5078148;28;19931;-83
2021/12/02 01:12:07;;;;;;;;;;;5.70;99.90;;;;;;5078055;28;19912;-82
2021/12/02 01:14:32;;;;;;;;;;;5.70;99.90;;;;;;5076777;28;19909;-83
2021/12/02 01:16:58;;;;;;;;;;;5.70;99.90;;;;;;5077973;28;20550;-83
2021/12/02 01:19:24;;;;;;;;;;;5.60;99.90;;;;;;5076750;28;19909;-84
2021/12/02 01:21:50;;;;;;;;;;;5.50;99.90;;;;;;5065334;28;20372;-82
2021/12/02 01:24:16;;;;;;;;;;;5.40;99.90;;;;;;5078062;28;19964;-83
2021/12/02 01:26:47;;;;;;;;;;;5.30;99.90;;;;;;5077931;28;19960;-82
2021/12/02 01:29:13;;;;;;;;;;;5.40;99.90;;;;;;5078044;28;19909;-83
2021/12/02 01:31:38;;;;;;;;;;;5.30;99.90;;;;;;5077620;28;19977;-83
2021/12/02 01:34:08;;;;;;;;;;;5.40;99.90;;;;;;5078044;28;19952;-83
2021/12/02 01:36:35;;;;;;;;;;;5.40;99.90;;;;;;5076496;28;19909;-83
2021/12/02 01:39:00;;;;;;;;;;;5.40;99.90;;;;;;5077911;28;19962;-83
2021/12/02 01:41:26;;;;;;;;;;;5.30;99.90;;;;;;5076392;28;19908;-83
2021/12/02 01:43:53;;;;;;;;;;;5.30;99.90;;;;;;5077953;28;19912;-83
2021/12/02 01:46:20;;;;;;;;;;;5.40;99.90;;;;;;5077570;28;19975;-83
2021/12/02 01:48:54;;;;;;;;;;;5.50;99.90;;;;;;5076321;28;20373;-83
2021/12/02 01:51:22;;;;;;;;;;;5.60;99.90;;;;;;5072788;28;19916;-82
2021/12/02 01:53:49;;;;;;;;;;;5.80;99.90;;;;;;5077739;28;19951;-83
2021/12/02 01:56:16;;;;;;;;;;;6.00;99.90;;;;;;5077645;28;19909;-83
2021/12/02 01:58:46;;;;;;;;;;;6.10;99.90;;;;;;5077765;28;19914;-82
2021/12/02 02:01:16;;;;;;;;;;;6.20;99.90;;;;;;5077352;28;19916;-83
2021/12/02 02:03:43;;;;;;;;;;;6.30;99.90;;;;;;5077389;28;19909;-83
2021/12/02 02:06:09;;;;;;;;;;;6.40;99.90;;;;;;5065473;28;19913;-83
2021/12/02 02:08:38;;;;;;;;;;;6.50;99.90;;;;;;5077621;28;19916;-81
2021/12/02 02:11:03;;;;;;;;;;;6.60;99.90;;;;;;5077299;28;19935;-81
2021/12/02 02:13:29;;;;;;;;;;;6.60;99.90;;;;;;5077610;28;19908;-81
2021/12/02 02:15:55;;;;;;;;;;;6.70;99.90;;;;;;5077313;28;19916;-82
2021/12/02 02:18:22;;;;;;;;;;;6.70;99.90;;;;;;5077442;28;19909;-81
2021/12/02 02:23:17;;;;;;;;;;;6.60;99.90;;;;;;5071447;28;19908;-83
2021/12/02 02:25:44;;;;;;;;;;;6.60;99.90;;;;;;5076995;28;19920;-82
2021/12/02 02:28:10;;;;;;;;;;;6.60;99.90;;;;;;5076029;28;20355;-82
2021/12/02 02:30:36;;;;;;;;;;;6.60;99.90;;;;;;5077256;28;19960;-83
2021/12/02 02:33:02;;;;;;;;;;;6.60;99.90;;;;;;5075832;28;19923;-80
2021/12/02 02:35:28;;;;;;;;;;;6.60;99.90;;;;;;5077283;28;20392;-82
2021/12/02 02:37:53;;;;;;;;;;;6.60;99.90;;;;;;5077296;28;19915;-81
2021/12/02 02:40:19;;;;;;;;;;;6.70;99.90;;;;;;5077224;28;19908;-83
2021/12/02 02:42:48;;;;;;;;;;;6.70;99.90;;;;;;5067547;28;19978;-82
2021/12/02 02:45:14;;;;;;;;;;;6.70;99.90;;;;;;5064096;28;19908;-81
2021/12/02 02:47:40;;;;;;;;;;;6.70;99.90;;;;;;5077042;28;19915;-81
2021/12/02 02:50:06;;;;;;;;;;;6.70;99.90;;;;;;5075758;28;19908;-82
2021/12/02 02:52:32;;;;;;;;;;;6.70;99.90;;;;;;5077021;28;19920;-83
2021/12/02 02:54:58;;;;;;;;;;;6.70;99.90;;;;;;5075906;28;20376;-82
2021/12/02 02:57:27;;;;;;;;;;;6.70;99.90;;;;;;5077089;28;19908;-81
2021/12/02 03:00:16;;;;;;;;;;;6.70;99.90;;;;;;5077128;28;19916;-82
2021/12/02 03:02:57;;;;;;;;;;;6.70;99.90;;;;;;5077141;28;19908;-82
2021/12/02 03:06:01;;;;;;;;;;;6.70;99.90;;;;;;5080628;28;19916;-82
2021/12/02 03:08:16;;;;;;;;;;;6.70;99.90;;;;;;5080279;28;19909;-82
2021/12/02 03:10:49;;;;;;;;;;;6.70;99.90;;;;;;5080585;28;20376;-82
2021/12/02 03:13:35;;;;;;;;;;;6.70;99.90;;;;;;5080713;28;19916;-82
2021/12/02 03:16:47;;;;;;;;;;;6.70;99.90;;;;;;5080404;28;19909;-81
2021/12/02 03:18:47;;;;;;;;;;;6.70;99.90;;;;;;5076234;28;19991;-83
2021/12/02 03:21:20;;;;;;;;;;;6.70;99.90;;;;;;5080305;28;19909;-82
2021/12/02 03:23:49;;;;;;;;;;;6.80;99.90;;;;;;5078777;28;19916;-82
2021/12/02 03:26:14;;;;;;;;;;;6.80;99.90;;;;;;5066288;28;19948;-83
2021/12/02 03:28:40;;;;;;;;;;;6.80;99.90;;;;;;5077476;28;19915;-83
2021/12/02 03:31:08;;;;;;;;;;;6.80;99.90;;;;;;5080181;28;19913;-82
2021/12/02 03:33:34;;;;;;;;;;;6.70;99.90;;;;;;5079878;28;19917;-81
2021/12/02 03:35:59;;;;;;;;;;;6.70;99.90;;;;;;5080141;28;20391;-84
2021/12/02 03:38:25;;;;;;;;;;;6.60;99.90;;;;;;5079964;28;19908;-82
2021/12/02 03:40:50;;;;;;;;;;;6.60;99.90;;;;;;5080180;28;19930;-81
2021/12/02 03:43:16;;;;;;;;;;;6.50;99.90;;;;;;5079795;28;20339;-83
2021/12/02 03:45:42;;;;;;;;;;;6.40;99.90;;;;;;5080029;28;20002;-82
2021/12/02 03:48:07;;;;;;;;;;;6.40;99.90;;;;;;5079711;28;19914;-81
2021/12/02 03:50:33;;;;;;;;;;;6.30;99.90;;;;;;5078440;28;20431;-83
2021/12/02 03:52:58;;;;;;;;;;;6.30;99.90;;;;;;5079815;28;19908;-82
2021/12/02 03:55:24;;;;;;;;;;;6.30;99.90;;;;;;5072413;28;19908;-81
2021/12/02 03:57:50;;;;;;;;;;;6.30;99.90;;;;;;5079686;28;19931;-80
2021/12/02 04:00:16;;;;;;;;;;;6.30;99.90;;;;;;5079638;28;19995;-80
2021/12/02 04:02:41;;;;;;;;;;;6.20;99.90;;;;;;5079335;28;19919;-81
2021/12/02 04:05:07;;;;;;;;;;;6.20;99.90;;;;;;5078288;28;19909;-83
2021/12/02 04:07:33;;;;;;;;;;;6.20;99.90;;;;;;5078000;28;20002;-83
2021/12/02 04:09:59;;;;;;;;;;;6.20;99.90;;;;;;5079554;28;20353;-83
2021/12/02 04:13:14;;;;;;;;;;;6.20;99.90;;;;;;5079259;28;19919;-83
2021/12/02 04:15:29;;;;;;;;;;;6.10;99.90;;;;;;5072525;28;19950;-83
2021/12/02 04:17:55;;;;;;;;;;;6.10;99.90;;;;;;5079138;28;20273;-82
2021/12/02 04:20:22;;;;;;;;;;;6.10;99.90;;;;;;5079164;28;19981;-81
2021/12/02 04:22:48;;;;;;;;;;;6.10;99.90;;;;;;5069462;28;19952;-83
2021/12/02 04:25:16;;;;;;;;;;;6.00;99.90;;;;;;5079121;28;19925;-82
2021/12/02 04:27:42;;;;;;;;;;;6.00;99.90;;;;;;5079037;28;19908;-83
2021/12/02 04:30:09;;;;;;;;;;;6.00;99.90;;;;;;5078690;28;19908;-83
2021/12/02 04:32:35;;;;;;;;;;;6.00;99.90;;;;;;5078850;28;19962;-83
2021/12/02 04:35:00;;;;;;;;;;;6.00;99.90;;;;;;5078905;28;19908;-83
2021/12/02 04:37:26;;;;;;;;;;;6.00;99.90;;;;;;5078943;28;19961;-82
2021/12/02 04:39:52;;;;;;;;;;;6.00;99.90;;;;;;5078719;28;19912;-81
2021/12/02 04:42:17;;;;;;;;;;;6.00;99.90;;;;;;5078856;28;20369;-82
2021/12/02 04:44:43;;;;;;;;;;;6.00;99.90;;;;;;5078703;28;19971;-83
2021/12/02 04:47:09;;;;;;;;;;;6.00;99.90;;;;;;5078682;28;20265;-82
2021/12/02 04:49:35;;;;;;;;;;;6.10;99.90;;;;;;5078683;28;19909;-82
2021/12/02 04:52:01;;;;;;;;;;;6.10;99.90;;;;;;5078723;28;19912;-81
2021/12/02 04:54:26;;;;;;;;;;;6.10;99.90;;;;;;5078615;28;19908;-82
2021/12/02 04:56:52;;;;;;;;;;;6.20;99.90;;;;;;5074850;28;19943;-83
2021/12/02 04:59:17;;;;;;;;;;;6.10;99.90;;;;;;5074811;28;19909;-82
2021/12/02 05:01:43;;;;;;;;;;;6.20;99.90;;;;;;5078270;28;19909;-83
2021/12/02 05:04:09;;;;;;;;;;;6.10;99.90;;;;;;5078405;28;20300;-82
2021/12/02 05:06:34;;;;;;;;;;;6.20;99.90;;;;;;5077134;28;19908;-81
2021/12/02 05:09:00;;;;;;;;;;;6.20;99.90;;;;;;5078309;28;19956;-82
2021/12/02 05:11:26;;;;;;;;;;;6.20;99.90;;;;;;5078273;28;19966;-82
2021/12/02 05:13:51;;;;;;;;;;;6.20;99.90;;;;;;5078033;28;19912;-82
2021/12/02 05:16:17;;;;;;;;;;;6.20;99.90;;;;;;5078099;28;20323;-84
2021/12/02 05:18:43;;;;;;;;;;;6.20;99.90;;;;;;5078248;28;19909;-84
2021/12/02 05:21:08;;;;;;;;;;;6.20;99.90;;;;;;5076837;28;20384;-82
2021/12/02 05:23:34;;;;;;;;;;;6.20;99.90;;;;;;5077939;28;20401;-83
2021/12/02 05:25:59;;;;;;;;;;;6.20;99.90;;;;;;5076471;28;19920;-83
2021/12/02 05:28:25;;;;;;;;;;;6.30;99.90;;;;;;5074447;28;19919;-81
2021/12/02 05:30:51;;;;;;;;;;;6.30;99.90;;;;;;5065420;28;19912;-83
2021/12/02 05:33:16;;;;;;;;;;;6.30;99.90;;;;;;5077121;28;19915;-81
2021/12/02 05:35:42;;;;;;;;;;;6.30;99.90;;;;;;5067640;28;20573;-83
2021/12/02 05:38:08;;;;;;;;;;;6.30;99.90;;;;;;5066731;28;19909;-82
2021/12/02 05:40:33;;;;;;;;;;;6.30;99.90;;;;;;5067285;28;19909;-82
2021/12/02 05:42:59;;;;;;;;;;;6.30;99.90;;;;;;5077735;28;19930;-83
2021/12/02 05:45:25;;;;;;;;;;;6.30;99.90;;;;;;5069802;28;19980;-82
2021/12/02 05:47:50;;;;;;;;;;;6.20;99.90;;;;;;5063704;28;19915;-82
2021/12/02 05:50:16;;;;;;;;;;;6.20;99.90;;;;;;5060383;28;19909;-83
2021/12/02 05:52:42;;;;;;;;;;;6.20;99.90;;;;;;5073212;28;19912;-82
2021/12/02 05:55:07;;;;;;;;;;;6.10;99.90;;;;;;5076306;28;19971;-81
2021/12/02 05:57:33;;;;;;;;;;;6.10;99.90;;;;;;5077557;28;19920;-82
2021/12/02 05:59:59;;;;;;;;;;;6.10;99.90;;;;;;5077739;28;20430;-83
2021/12/02 06:02:24;;;;;;;;;;;6.10;99.90;;;;;;5077274;28;19908;-84
2021/12/02 06:04:52;;;;;;;;;;;6.10;99.90;;;;;;5077777;28;19909;-82
2021/12/02 06:07:18;;;;;;;;;;;6.10;99.90;;;;;;5077435;28;19916;-81
2021/12/02 06:09:44;;;;;;;;;;;6.10;99.90;;;;;;5076581;28;19915;-83
2021/12/02 06:12:10;;;;;;;;;;;6.10;99.90;;;;;;5077297;28;19913;-82
2021/12/02 06:14:35;;;;;;;;;;;6.20;99.90;;;;;;5076515;28;19947;-82
2021/12/02 06:17:01;;;;;;;;;;;6.10;99.90;;;;;;5077300;28;20388;-83
2021/12/02 06:19:27;;;;;;;;;;;6.10;99.90;;;;;;5077508;28;19915;-83
2021/12/02 06:21:52;;;;;;;;;;;6.10;99.90;;;;;;5077512;28;19916;-81
2021/12/02 06:24:19;;;;;;;;;;;6.10;99.90;;;;;;5077419;28;20047;-82
2021/12/02 06:26:45;;;;;;;;;;;6.10;99.90;;;;;;5077240;28;19930;-82
2021/12/02 06:29:11;;;;;;;;;;;6.10;99.90;;;;;;5077375;28;20376;-83
2021/12/02 06:31:36;;;;;;;;;;;6.10;99.90;;;;;;5077026;28;19935;-81
2021/12/02 06:34:02;;;;;;;;;;;6.10;99.90;;;;;;5077516;28;19919;-83
2021/12/02 06:36:28;;;;;;;;;;;6.10;99.90;;;;;;5077342;28;19915;-81
2021/12/02 06:38:53;;;;;;;;;;;6.10;99.90;;;;;;5079521;28;20399;-81
2021/12/02 06:41:19;;;;;;;;;;;6.10;99.90;;;;;;5081094;28;19975;-80
2021/12/02 06:43:44;;;;;;;;;;;6.10;99.90;;;;;;5079840;28;19915;-82
2021/12/02 06:46:10;;;;;;;;;;;6.10;99.90;;;;;;5079589;28;19908;-83
2021/12/02 06:48:36;;;;;;;;;;;6.10;99.90;;;;;;5081111;28;19915;-83
2021/12/02 06:51:01;;;;;;;;;;;6.10;99.90;;;;;;5070071;28;19921;-82
2021/12/02 06:53:27;;;;;;;;;;;6.00;99.90;;;;;;5080579;28;19908;-80
2021/12/02 06:55:53;;;;;;;;;;;6.00;99.90;;;;;;5080824;28;19908;-83
2021/12/02 06:58:18;;;;;;;;;;;6.00;99.90;;;;;;5079511;28;19993;-83
2021/12/02 07:00:44;;;;;;;;;;;6.10;99.90;;;;;;5113125;28;19928;-83
2021/12/02 07:03:09;;;;;;;;;;;6.10;99.90;;;;;;5080630;28;19908;-84
2021/12/02 07:05:35;;;;;;;;;;;6.10;99.90;;;;;;5078677;28;19974;-84
2021/12/02 07:08:01;;;;;;;;;;;6.10;99.90;;;;;;5079159;28;20277;-84
2021/12/02 07:10:28;;;;;;;;;;;6.00;99.90;;;;;;5080560;28;19951;-84
2021/12/02 07:12:57;;;;;;;;;;;6.00;99.90;;;;;;5079206;28;19915;-86
2021/12/02 07:15:32;;;;;;;;;;;6.00;99.90;;;;;;5080346;28;19909;-84
2021/12/02 07:17:59;;;;;;;;;;;6.00;99.90;;;;;;5080384;28;19975;-83
2021/12/02 07:20:26;;;;;;;;;;;6.10;99.90;;;;;;5077895;28;19913;-80
2021/12/02 07:22:52;;;;;;;;;;;6.10;99.90;;;;;;5075986;28;19916;-83
2021/12/02 07:25:17;;;;;;;;;;;6.10;99.90;;;;;;5064548;28;19920;-81
2021/12/02 07:27:43;;;;;;;;;;;6.10;99.90;;;;;;5064293;28;19956;-82
2021/12/02 07:30:09;;;;;;;;;;;6.10;99.90;;;;;;5063111;28;19920;-84
2021/12/02 07:32:36;;;;;;;;;;;6.10;99.90;;;;;;5063150;28;19960;-83
2021/12/02 07:35:03;;;;;;;;;;;6.10;99.90;;;;;;5066214;28;19916;-83
2021/12/02 07:37:29;;;;;;;;;;;6.10;99.90;;;;;;5061697;28;20385;-84
2021/12/02 07:39:55;;;;;;;;;;;6.20;99.90;;;;;;5061448;28;19916;-83
2021/12/02 07:42:21;;;;;;;;;;;6.20;99.90;;;;;;5059908;28;20055;-81
2021/12/02 07:44:47;;;;;;;;;;;6.30;99.90;;;;;;5062407;28;19932;-83
2021/12/02 07:47:12;;;;;;;;;;;6.20;99.90;;;;;;5061220;28;19913;-81
2021/12/02 07:49:38;;;;;;;;;;;6.30;99.90;;;;;;5061235;28;19974;-83
2021/12/02 07:52:04;;;;;;;;;;;6.20;99.90;;;;;;5059916;28;19912;-82
2021/12/02 07:54:33;;;;;;;;;;;6.30;99.90;;;;;;5064182;28;20008;-84
2021/12/02 07:56:59;;;;;;;;;;;6.20;99.90;;;;;;5079930;28;19909;-83
2021/12/02 07:59:24;;;;;;;;;;;6.30;99.90;;;;;;5079596;28;20000;-83
2021/12/02 08:01:51;;;;;;;;;;;6.30;99.90;;;;;;5079507;28;19940;-83
2021/12/02 08:04:16;;;;;;;;;;;6.30;99.90;;;;;;5078259;28;19974;-83
2021/12/02 08:11:54;;;;;;;;;;;6.40;99.90;;;;;;5016848;26;19925;-83
2021/12/02 08:14:19;;;;;;;;;;;6.40;99.90;;;;;;5016772;28;19959;-83
2021/12/02 08:16:45;;;;;;;;;;;6.50;99.90;;;;;;5019195;28;19909;-84
2021/12/02 08:19:11;;;;;;;;;;;6.60;99.90;;;;;;5023177;28;19913;-83
2021/12/02 08:21:37;;;;;;;;;;;6.60;99.90;;;;;;5019894;28;19914;-82
2021/12/02 08:24:03;;;;;;;;;;;6.70;99.90;;;;;;5019091;28;20012;-83
2021/12/02 08:26:30;;;;;;;;;;;6.80;99.90;;;;;;5028868;28;19956;-81
2021/12/02 08:28:55;;;;;;;;;;;6.90;99.90;;;;;;5031302;28;20389;-81
2021/12/02 08:31:21;;;;;;;;;;;6.90;99.90;;;;;;5018664;28;20000;-82
2021/12/02 08:33:49;;;;;;;;;;;6.90;99.90;;;;;;5033098;28;19914;-81
2021/12/02 08:36:14;;;;;;;;;;;6.90;99.90;;;;;;5017643;28;19956;-82
2021/12/02 08:38:40;;;;;;;;;;;7.00;99.90;;;;;;5037083;28;19920;-82
2021/12/02 08:41:06;;;;;;;;;;;7.00;99.90;;;;;;5034040;28;19957;-81
2021/12/02 08:43:31;;;;;;;;;;;7.00;99.90;;;;;;5028026;28;20043;-82
2021/12/02 08:45:57;;;;;;;;;;;7.00;99.90;;;;;;5010694;28;19936;-82
2021/12/02 08:48:23;;;;;;;;;;;7.00;99.90;;;;;;5019166;28;19960;-82
2021/12/02 08:50:48;;;;;;;;;;;7.00;99.90;;;;;;5005774;28;19917;-82
2021/12/02 08:53:14;;;;;;;;;;;7.00;99.90;;;;;;5017852;28;19910;-82
2021/12/02 08:55:40;;;;;;;;;;;7.00;99.90;;;;;;5018494;28;19965;-83
2021/12/02 08:58:08;;;;;;;;;;;7.00;99.90;;;;;;5017575;28;19909;-82
2021/12/02 09:00:36;;;;;;;;;;;7.10;99.90;;;;;;5018606;28;20339;-82
2021/12/02 09:03:04;;;;;;;;;;;7.10;99.90;;;;;;5018599;28;19909;-82
2021/12/02 09:05:30;;;;;;;;;;;7.20;99.90;;;;;;5018743;28;19913;-82
2021/12/02 09:07:55;;;;;;;;;;;7.20;99.90;;;;;;5018834;28;20250;-82
2021/12/02 09:10:21;;;;;;;;;;;7.20;99.90;;;;;;5017441;28;20021;-81
2021/12/02 09:12:47;;;;;;;;;;;7.20;99.90;;;;;;5033508;28;20348;-82
2021/12/02 09:15:13;;;;;;;;;;;7.20;99.90;;;;;;5033489;28;19952;-81
2021/12/02 09:17:39;;;;;;;;;;;7.30;99.90;;;;;;5013938;28;19917;-79
2021/12/02 09:20:06;;;;;;;;;;;7.30;99.90;;;;;;5018228;28;20373;-80
2021/12/02 09:22:31;;;;;;;;;;;7.40;99.90;;;;;;5014623;28;19921;-79
2021/12/02 09:24:57;;;;;;;;;;;7.40;99.90;;;;;;5017734;28;19925;-81
2021/12/02 09:27:22;;;;;;;;;;;7.40;99.90;;;;;;5017999;28;19959;-80
2021/12/02 09:29:48;;;;;;;;;;;7.30;99.90;;;;;;5017078;28;19917;-81
2021/12/02 09:32:14;;;;;;;;;;;7.30;99.90;;;;;;5018281;28;19913;-83
2021/12/02 09:34:40;;;;;;;;;;;7.20;99.90;;;;;;5018052;28;19910;-82
2021/12/02 09:37:05;;;;;;;;;;;7.20;99.90;;;;;;5018555;28;19941;-82
2021/12/02 09:39:33;;;;;;;;;;;7.20;99.90;;;;;;5018189;28;19933;-82
2021/12/02 09:41:59;;;;;;;;;;;7.20;99.90;;;;;;5018068;28;19925;-81
2021/12/02 09:44:25;;;;;;;;;;;7.10;99.90;;;;;;5017652;28;20341;-82
2021/12/02 09:46:51;;;;;;;;;;;7.00;99.90;;;;;;5017936;28;19972;-79
2021/12/02 09:49:17;;;;;;;;;;;6.90;99.90;;;;;;5033153;28;20000;-79
2021/12/02 09:52:01;;;;;;;;;;;6.90;99.90;;;;;;5032689;28;19914;-80
2021/12/02 09:54:39;;;;;;;;;;;6.80;99.90;;;;;;5015689;28;19913;-79
2021/12/02 09:57:07;;;;;;;;;;;6.90;99.90;;;;;;5017482;28;19910;-79
2021/12/02 10:02:06;;;;;;;;;;;7.00;99.90;;;;;;5017873;28;19909;-79
2021/12/02 10:04:36;;;;;;;;;;;7.10;99.90;;;;;;5017687;28;20317;-79
2021/12/02 10:07:04;;;;;;;;;;;7.20;99.90;;;;;;5017204;28;19936;-79
2021/12/02 10:09:49;;;;;;;;;;;7.30;99.90;;;;;;5016849;28;19936;-79
2021/12/02 10:12:20;;;;;;;;;;;7.20;99.90;;;;;;5018925;28;19921;-78
2021/12/02 10:14:50;;;;;;;;;;;7.10;99.90;;;;;;5026253;28;19920;-79
2021/12/02 10:17:26;;;;;;;;;;;7.00;99.90;;;;;;5036328;28;19917;-79
2021/12/02 10:23:01;;;;;;;;;;;6.90;99.90;;;;;;5021826;28;20008;-79
2021/12/02 10:25:31;;;;;;;;;;;6.90;99.90;;;;;;5021385;28;19940;-78
2021/12/02 10:28:07;;;;;;;;;;;7.10;99.90;;;;;;5036691;28;19924;-79
2021/12/02 10:30:33;;;;;;;;;;;7.20;99.90;;;;;;5036679;28;19963;-79
2021/12/02 10:32:58;;;;;;;;;;;7.30;99.90;;;;;;5036366;28;19909;-78
2021/12/02 10:35:37;;;;;;;;;;;7.20;99.90;;;;;;5021523;28;20499;-79
2021/12/02 10:38:03;;;;;;;;;;;7.20;99.90;;;;;;5015056;28;19909;-79
2021/12/02 10:40:29;;;;;;;;;;;7.20;99.90;;;;;;5029623;28;19916;-78
2021/12/02 10:42:54;;;;;;;;;;;7.10;99.90;;;;;;5021307;28;19910;-78
2021/12/02 10:45:24;;;;;;;;;;;7.10;99.90;;;;;;5021361;28;20007;-78
2021/12/02 10:47:50;;;;;;;;;;;7.20;99.90;;;;;;5021590;28;19913;-78
2021/12/02 10:50:17;;;;;;;;;;;7.30;99.90;;;;;;5020770;28;20323;-79
2021/12/02 10:52:43;;;;;;;;;;;7.40;99.90;;;;;;5020352;28;19915;-79
2021/12/02 10:55:10;;;;;;;;;;;7.40;99.90;;;;;;5019966;28;19910;-79
2021/12/02 10:57:37;;;;;;;;;;;7.50;99.90;;;;;;5020105;28;19910;-79
2021/12/02 11:00:12;;;;;;;;;;;7.50;99.90;;;;;;5019887;28;20000;-79
2021/12/02 11:02:40;;;;;;;;;;;7.70;99.90;;;;;;5020297;28;20012;-79
2021/12/02 11:05:09;;;;;;;;;;;7.90;99.90;;;;;;5020579;28;19957;-79
2021/12/02 11:07:39;;;;;;;;;;;8.00;99.90;;;;;;5021205;28;20430;-79
2021/12/02 11:10:12;;;;;;;;;;;8.00;99.90;;;;;;5035495;28;19963;-79
2021/12/02 11:12:38;;;;;;;;;;;7.90;99.90;;;;;;5020310;28;19922;-78
2021/12/02 11:15:09;;;;;;;;;;;7.80;99.90;;;;;;5020165;28;19921;-79
2021/12/02 11:17:38;;;;;;;;;;;7.80;99.90;;;;;;5020630;28;19909;-78
2021/12/02 11:20:05;;;;;;;;;;;7.70;99.90;;;;;;5019850;28;19909;-79
2021/12/02 11:22:31;;;;;;;;;;;7.60;99.90;;;;;;5020766;28;19948;-79
2021/12/02 11:24:57;;;;;;;;;;;7.50;99.90;;;;;;5020392;28;19922;-79
2021/12/02 11:27:23;;;;;;;;;;;7.50;99.90;;;;;;5020534;28;19956;-79
2021/12/02 11:29:53;;;;;;;;;;;7.50;99.90;;;;;;5020553;28;19917;-80
2021/12/02 11:32:33;;;;;;;;;;;7.40;99.90;;;;;;5020435;28;19913;-79
2021/12/02 11:35:03;;;;;;;;;;;7.30;99.90;;;;;;5035661;28;19909;-79
2021/12/02 11:37:29;;;;;;;;;;;7.30;99.90;;;;;;5019382;28;19909;-78
2021/12/02 11:39:55;;;;;;;;;;;7.10;99.90;;;;;;5019542;28;19917;-79
2021/12/02 11:42:21;;;;;;;;;;;7.10;99.90;;;;;;5018515;28;19945;-79
2021/12/02 11:44:48;;;;;;;;;;;7.10;99.90;;;;;;5035343;28;20391;-79
2021/12/02 11:47:13;;;;;;;;;;;7.20;99.90;;;;;;5020006;28;19980;-80
2021/12/02 11:49:40;;;;;;;;;;;7.40;99.90;;;;;;5020316;28;19909;-80
2021/12/02 11:52:06;;;;;;;;;;;7.60;99.90;;;;;;5019965;28;19921;-80
2021/12/02 11:54:32;;;;;;;;;;;7.70;99.90;;;;;;5020221;28;19909;-79
2021/12/02 11:56:58;;;;;;;;;;;7.70;99.90;;;;;;5018554;28;19964;-80
2021/12/02 11:59:24;;;;;;;;;;;7.60;99.90;;;;;;5035539;28;19913;-79
2021/12/02 12:01:54;;;;;;;;;;;7.50;99.90;;;;;;5035035;28;19910;-79
2021/12/02 12:04:20;;;;;;;;;;;7.50;99.90;;;;;;5034895;28;19956;-79
2021/12/02 12:06:50;;;;;;;;;;;7.40;99.90;;;;;;5020094;28;19910;-80
2021/12/02 12:09:21;;;;;;;;;;;7.40;99.90;;;;;;5034766;28;20331;-80
2021/12/02 12:11:48;;;;;;;;;;;7.50;99.90;;;;;;5022763;28;19921;-80
2021/12/02 12:14:16;;;;;;;;;;;7.50;99.90;;;;;;5018467;28;19909;-80
2021/12/02 12:16:45;;;;;;;;;;;7.60;99.90;;;;;;5019566;28;19917;-80
2021/12/02 12:19:13;;;;;;;;;;;7.50;99.90;;;;;;5034147;28;19910;-80
2021/12/02 12:21:41;;;;;;;;;;;7.50;99.90;;;;;;5019351;28;19909;-80
2021/12/02 12:24:07;;;;;;;;;;;7.50;99.90;;;;;;5019514;28;19910;-80
2021/12/02 12:26:35;;;;;;;;;;;7.50;99.90;;;;;;5018942;28;19910;-81
2021/12/02 12:29:04;;;;;;;;;;;7.40;99.90;;;;;;5019594;28;19933;-80
2021/12/02 12:31:30;;;;;;;;;;;7.50;99.90;;;;;;5019316;28;19964;-81
2021/12/02 12:33:59;;;;;;;;;;;7.60;99.90;;;;;;5019381;28;19914;-80
2021/12/02 12:36:45;;;;;;;;;;;7.60;99.90;;;;;;5018468;28;19910;-79
2021/12/02 12:39:23;;;;;;;;;;;7.70;99.90;;;;;;5032783;28;19959;-79
2021/12/02 12:42:12;;;;;;;;;;;7.80;99.90;;;;;;5017116;28;19910;-79
2021/12/02 12:44:47;;;;;;;;;;;7.80;99.90;;;;;;5004527;28;20376;-78
2021/12/02 12:47:12;;;;;;;;;;;7.80;99.90;;;;;;5018684;28;19917;-79
2021/12/02 12:49:38;;;;;;;;;;;7.90;99.90;;;;;;5033649;28;19910;-79
2021/12/02 12:52:13;;;;;;;;;;;8.00;99.90;;;;;;5018310;28;20315;-79
2021/12/02 12:54:40;;;;;;;;;;;8.10;99.90;;;;;;5018295;28;20288;-79
2021/12/02 12:57:06;;;;;;;;;;;8.10;99.90;;;;;;5017839;28;19909;-79
2021/12/02 12:59:49;;;;;;;;;;;7.90;99.90;;;;;;5018485;28;19988;-79
2021/12/02 13:02:16;;;;;;;;;;;7.80;99.90;;;;;;5018515;28;19909;-79
2021/12/02 13:04:52;;;;;;;;;;;7.70;99.90;;;;;;5000859;28;19909;-78
2021/12/02 13:07:19;;;;;;;;;;;7.60;99.90;;;;;;5016236;28;19971;-79
2021/12/02 13:09:57;;;;;;;;;;;7.40;99.90;;;;;;5050393;28;19910;-78
2021/12/02 13:12:47;;;;;;;;;;;7.30;99.90;;;;;;5026646;28;19944;-80
2021/12/02 13:15:15;;;;;;;;;;;7.30;99.90;;;;;;5013267;28;19915;-79
2021/12/02 13:17:42;;;;;;;;;;;7.30;99.90;;;;;;5017647;28;19928;-79
2021/12/02 13:20:16;;;;;;;;;;;7.40;99.90;;;;;;5017445;28;19960;-78
2021/12/02 13:22:41;;;;;;;;;;;7.40;99.90;;;;;;5018354;28;19910;-80
2021/12/02 13:25:23;;;;;;;;;;;7.30;99.90;;;;;;5032436;28;19917;-79
2021/12/02 13:27:49;;;;;;;;;;;7.30;99.90;;;;;;5033571;28;20325;-79
2021/12/02 13:30:14;;;;;;;;;;;7.40;99.90;;;;;;5018469;28;19925;-79
2021/12/02 13:32:47;;;;;;;;;;;7.40;99.90;;;;;;5018070;28;19913;-80
2021/12/02 13:35:30;;;;;;;;;;;7.40;99.90;;;;;;5017589;28;19916;-81
2021/12/02 13:38:01;;;;;;;;;;;7.50;99.90;;;;;;5017833;28;20005;-79
2021/12/02 13:40:32;;;;;;;;;;;7.40;99.90;;;;;;5016266;28;19929;-80
2021/12/02 13:42:59;;;;;;;;;;;7.30;99.90;;;;;;5018154;28;19955;-80
2021/12/02 13:45:26;;;;;;;;;;;7.30;99.90;;;;;;5018072;28;19909;-78
2021/12/02 13:48:04;;;;;;;;;;;7.20;99.90;;;;;;5018076;28;19968;-80
2021/12/02 13:50:38;;;;;;;;;;;7.10;99.90;;;;;;5018018;28;20431;-78
2021/12/02 13:53:03;;;;;;;;;;;7.10;99.90;;;;;;5017901;28;20000;-79
2021/12/02 13:55:35;;;;;;;;;;;7.10;99.90;;;;;;5016142;28;19914;-78
2021/12/02 13:58:29;;;;;;;;;;;7.10;99.90;;;;;;5018058;28;20409;-79
2021/12/02 14:00:50;;;;;;;;;;;7.10;99.90;;;;;;5017484;28;19982;-79
2021/12/02 14:03:17;;;;;;;;;;;7.00;99.90;;;;;;5017953;28;19963;-80
2021/12/02 14:05:44;;;;;;;;;;;6.90;99.90;;;;;;5033206;28;19996;-80
2021/12/02 14:08:11;;;;;;;;;;;6.90;99.90;;;;;;5017889;28;20004;-79
2021/12/02 14:10:37;;;;;;;;;;;6.80;99.90;;;;;;5032121;28;19926;-78
2021/12/02 14:13:04;;;;;;;;;;;6.80;99.90;;;;;;5032377;28;20425;-80
2021/12/02 14:15:31;;;;;;;;;;;6.70;99.90;;;;;;5017708;28;20000;-79
2021/12/02 14:18:07;;;;;;;;;;;6.80;99.90;;;;;;5017496;28;19910;-81
2021/12/02 14:20:46;;;;;;;;;;;6.80;99.90;;;;;;5032197;28;19909;-79
2021/12/02 14:23:41;;;;;;;;;;;6.80;99.90;;;;;;5032779;28;19909;-80
2021/12/02 14:26:12;;;;;;;;;;;6.80;99.90;;;;;;5008475;28;19913;-80
2021/12/02 14:28:43;;;;;;;;;;;6.80;99.90;;;;;;5017017;28;19910;-80
2021/12/02 14:31:21;;;;;;;;;;;6.90;99.90;;;;;;5017414;28;20317;-81
2021/12/02 14:33:47;;;;;;;;;;;6.90;99.90;;;;;;5017259;28;19960;-80
2021/12/02 14:36:14;;;;;;;;;;;7.00;99.90;;;;;;5016918;28;19909;-80
2021/12/02 14:38:40;;;;;;;;;;;6.90;99.90;;;;;;5016675;28;19909;-80
2021/12/02 14:41:16;;;;;;;;;;;6.80;99.90;;;;;;5016487;28;19917;-81
2021/12/02 14:43:52;;;;;;;;;;;6.80;99.90;;;;;;4998445;28;19921;-80
2021/12/02 14:46:20;;;;;;;;;;;6.70;99.90;;;;;;5014132;28;19992;-80
2021/12/02 14:48:57;;;;;;;;;;;6.70;99.90;;;;;;5016594;28;19953;-80
2021/12/02 14:51:22;;;;;;;;;;;6.70;99.90;;;;;;5016885;28;19913;-78